createdAt,value
2024-01-16T00:00:54.895Z,1.40
2024-01-16T00:03:56.996Z,1.40
2024-01-16T00:06:59.207Z,1.40
2024-01-16T00:10:01.322Z,1.40
2024-01-16T00:13:03.374Z,1.50
2024-01-16T00:16:05.785Z,1.40
2024-01-16T00:19:07.835Z,1.50
2024-01-16T00:22:10.064Z,1.50
2024-01-16T00:25:12.301Z,1.50
2024-01-16T00:28:14.575Z,1.50
2024-01-16T00:31:20.644Z,1.40
2024-01-16T00:34:22.765Z,1.50
2024-01-16T00:37:24.906Z,1.60
2024-01-16T00:40:26.913Z,1.50
2024-01-16T00:43:29.063Z,1.60
2024-01-16T00:46:31.079Z,1.60
2024-01-16T00:49:33.220Z,1.70
2024-01-16T00:52:35.325Z,1.80
2024-01-16T00:55:37.915Z,1.80
2024-01-16T00:58:40.273Z,1.80
2024-01-16T01:01:42.329Z,1.80
2024-01-16T01:04:44.565Z,1.70
2024-01-16T01:07:46.681Z,1.70
2024-01-16T01:10:49.804Z,1.70
2024-01-16T01:13:52.458Z,1.70
2024-01-16T01:16:54.918Z,1.80
2024-01-16T01:19:56.974Z,1.80
2024-01-16T01:22:58.962Z,1.90
2024-01-16T01:26:01.774Z,1.80
2024-01-16T01:29:04.101Z,1.70
2024-01-16T01:32:06.338Z,1.60
2024-01-16T01:35:08.795Z,1.60
2024-01-16T01:38:10.902Z,1.70
2024-01-16T01:41:13.200Z,1.60
2024-01-16T01:44:15.277Z,1.60
2024-01-16T01:47:17.603Z,1.60
2024-01-16T01:50:22.181Z,1.60
2024-01-16T01:53:26.939Z,1.50
2024-01-16T01:56:29.305Z,1.40
2024-01-16T01:59:32.944Z,1.40
2024-01-16T02:02:35.482Z,1.40
2024-01-16T02:05:40.999Z,1.30
2024-01-16T02:08:44.436Z,1.30
2024-01-16T02:11:47.733Z,1.40
2024-01-16T02:14:50.445Z,1.30
2024-01-16T02:17:54.238Z,1.30
2024-01-16T02:21:02.252Z,1.30
2024-01-16T02:24:07.444Z,1.20
2024-01-16T02:27:10.228Z,1.10
2024-01-16T02:30:13.438Z,1.10
2024-01-16T02:33:16.654Z,1.30
2024-01-16T02:36:19.562Z,1.20
2024-01-16T02:39:22.613Z,1.20
2024-01-16T02:42:31.345Z,1.10
2024-01-16T02:45:33.902Z,1.10
2024-01-16T02:48:42.015Z,1.10
2024-01-16T02:51:45.186Z,1.10
2024-01-16T02:54:48.192Z,1.10
2024-01-16T02:57:51.362Z,1.20
2024-01-16T03:00:54.391Z,1.30
2024-01-16T03:03:57.368Z,1.20
2024-01-16T03:07:00.337Z,1.00
2024-01-16T03:10:04.117Z,1.20
2024-01-16T03:13:07.260Z,1.20
2024-01-16T03:16:10.414Z,1.20
2024-01-16T03:19:16.460Z,1.10
2024-01-16T03:22:19.169Z,1.20
2024-01-16T03:25:22.570Z,1.10
2024-01-16T03:28:25.954Z,1.10
2024-01-16T03:31:34.582Z,1.00
2024-01-16T03:34:38.516Z,1.00
2024-01-16T03:37:41.956Z,1.00
2024-01-16T03:40:47.955Z,1.00
2024-01-16T03:43:51.162Z,1.00
2024-01-16T03:46:56.815Z,1.00
2024-01-16T03:50:02.570Z,1.00
2024-01-16T03:53:07.604Z,1.00
2024-01-16T03:56:16.255Z,1.00
2024-01-16T03:59:22.185Z,1.00
2024-01-16T04:02:25.626Z,1.00
2024-01-16T04:05:31.598Z,1.00
2024-01-16T04:08:37.937Z,1.00
2024-01-16T04:11:52.188Z,1.00
2024-01-16T04:14:58.259Z,1.00
2024-01-16T04:18:02.437Z,0.90
2024-01-16T04:21:13.075Z,1.00
2024-01-16T04:24:28.680Z,0.80
2024-01-16T04:27:35.547Z,1.00
2024-01-16T04:30:41.521Z,0.90
2024-01-16T04:33:44.881Z,0.90
2024-01-16T04:36:48.368Z,0.80
2024-01-16T04:39:50.934Z,0.70
2024-01-16T04:43:01.035Z,0.80
2024-01-16T04:46:08.463Z,0.80
2024-01-16T04:49:11.333Z,0.80
2024-01-16T04:52:16.946Z,0.70
2024-01-16T04:55:23.352Z,0.70
2024-01-16T04:58:25.860Z,0.70
2024-01-16T05:01:28.803Z,0.70
2024-01-16T05:04:31.246Z,0.70
2024-01-16T05:07:35.199Z,0.70
2024-01-16T05:10:45.679Z,0.60
2024-01-16T05:13:50.605Z,0.50
2024-01-16T05:16:57.726Z,0.50
2024-01-16T05:20:07.351Z,0.50
2024-01-16T05:23:17.088Z,0.50
2024-01-16T05:26:28.892Z,0.50
2024-01-16T05:29:45.074Z,0.50
2024-01-16T05:32:49.260Z,0.60
2024-01-16T05:36:09.442Z,0.70
2024-01-16T05:39:17.179Z,0.50
2024-01-16T05:42:20.682Z,0.50
2024-01-16T05:45:23.481Z,0.60
2024-01-16T05:48:26.586Z,0.40
2024-01-16T05:51:30.217Z,0.50
2024-01-16T05:54:33.123Z,0.40
2024-01-16T05:57:35.989Z,0.40
2024-01-16T06:00:38.857Z,0.40
2024-01-16T06:03:42.490Z,0.40
2024-01-16T06:06:45.497Z,0.40
2024-01-16T06:09:48.636Z,0.40
2024-01-16T06:12:51.426Z,0.30
2024-01-16T06:15:54.176Z,0.30
2024-01-16T06:18:57.115Z,0.30
2024-01-16T06:22:00.751Z,0.40
2024-01-16T06:25:03.412Z,0.40
2024-01-16T06:28:06.880Z,0.30
2024-01-16T06:31:09.970Z,0.40
2024-01-16T06:34:13.255Z,0.40
2024-01-16T06:37:16.164Z,0.30
2024-01-16T06:40:19.267Z,0.50
2024-01-16T06:43:21.999Z,0.50
2024-01-16T06:46:25.015Z,0.50
2024-01-16T06:49:29.271Z,0.60
2024-01-16T06:52:32.597Z,0.60
2024-01-16T06:55:35.187Z,0.50
2024-01-16T06:58:42.060Z,0.60
2024-01-16T07:01:45.307Z,0.60
2024-01-16T07:04:48.926Z,0.70
2024-01-16T07:07:52.452Z,0.70
2024-01-16T07:10:55.523Z,0.70
2024-01-16T07:13:58.724Z,0.70
2024-01-16T07:17:03.948Z,0.70
2024-01-16T07:20:07.498Z,0.70
2024-01-16T07:23:10.359Z,0.70
2024-01-16T07:26:13.199Z,0.80
2024-01-16T07:29:16.693Z,0.80
2024-01-16T07:32:19.125Z,0.90
2024-01-16T07:35:22.039Z,0.80
2024-01-16T07:38:25.029Z,0.80
2024-01-16T07:41:28.337Z,0.80
2024-01-16T07:44:31.345Z,0.80
2024-01-16T07:47:35.505Z,0.90
2024-01-16T07:50:38.779Z,0.90
2024-01-16T07:53:41.986Z,0.90
2024-01-16T07:56:44.857Z,1.00
2024-01-16T07:59:47.912Z,0.90
2024-01-16T08:02:50.880Z,1.00
2024-01-16T08:05:53.645Z,1.00
2024-01-16T08:08:56.393Z,1.00
2024-01-16T08:11:59.540Z,1.00
2024-01-16T08:15:04.995Z,1.10
2024-01-16T08:18:09.036Z,1.10
2024-01-16T08:21:13.610Z,1.10
2024-01-16T08:24:18.810Z,1.10
2024-01-16T08:27:24.166Z,1.10
2024-01-16T08:30:29.232Z,1.20
2024-01-16T08:33:40.418Z,1.20
2024-01-16T08:36:50.679Z,1.30
2024-01-16T08:39:56.386Z,1.30
2024-01-16T08:43:01.328Z,1.40
2024-01-16T08:46:07.805Z,1.40
2024-01-16T08:49:11.041Z,1.40
2024-01-16T08:52:14.356Z,1.50
2024-01-16T08:55:17.571Z,1.50
2024-01-16T08:58:22.137Z,1.60
2024-01-16T09:01:25.117Z,1.60
2024-01-16T09:04:30.908Z,1.60
2024-01-16T09:07:34.169Z,1.70
2024-01-16T09:10:37.332Z,1.80
2024-01-16T09:13:46.751Z,1.80
2024-01-16T09:16:51.654Z,1.70
2024-01-16T09:19:57.564Z,1.70
2024-01-16T09:23:08.152Z,1.80
2024-01-16T09:26:11.049Z,1.80
2024-01-16T09:29:18.454Z,1.80
2024-01-16T09:32:21.812Z,1.70
2024-01-16T09:35:24.855Z,1.70
2024-01-16T09:38:28.994Z,1.70
2024-01-16T09:41:39.676Z,1.70
2024-01-16T09:44:44.674Z,1.60
2024-01-16T09:47:56.930Z,1.80
2024-01-16T09:51:02.314Z,1.80
2024-01-16T09:54:05.306Z,1.80
2024-01-16T09:57:15.020Z,1.90
2024-01-16T10:00:22.228Z,1.90
2024-01-16T10:03:26.658Z,1.90
2024-01-16T10:06:32.186Z,2.00
2024-01-16T10:09:35.228Z,2.30
2024-01-16T10:12:39.984Z,2.40
2024-01-16T10:15:48.320Z,2.40
2024-01-16T10:19:08.414Z,2.70
2024-01-16T10:22:13.775Z,3.90
2024-01-16T10:25:21.887Z,3.90
2024-01-16T10:28:25.977Z,4.20
2024-01-16T10:31:32.221Z,4.40
2024-01-16T10:34:36.012Z,4.90
2024-01-16T10:37:55.995Z,5.20
2024-01-16T10:41:16.965Z,4.90
2024-01-16T10:44:23.342Z,5.50
2024-01-16T10:47:32.237Z,6.50
2024-01-16T10:50:39.820Z,6.80
2024-01-16T10:53:45.998Z,6.90
2024-01-16T10:56:48.050Z,7.60
2024-01-16T11:00:14.318Z,8.20
2024-01-16T11:03:43.859Z,8.40
2024-01-16T11:06:46.980Z,8.50
2024-01-16T11:09:52.589Z,8.50
2024-01-16T11:12:57.089Z,8.50
2024-01-16T11:16:00.469Z,8.30
2024-01-16T11:19:24.546Z,8.10
2024-01-16T11:22:28.440Z,8.40
2024-01-16T11:25:35.095Z,8.10
2024-01-16T11:28:37.478Z,7.90
2024-01-16T11:31:39.987Z,7.60
2024-01-16T11:34:45.327Z,7.00
2024-01-16T11:37:50.565Z,7.10
2024-01-16T11:40:53.699Z,7.20
2024-01-16T11:43:56.552Z,7.40
2024-01-16T11:47:02.520Z,6.90
2024-01-16T12:03:31.734Z,6.90
2024-01-16T12:06:39.477Z,6.50
2024-01-16T12:09:42.481Z,6.40
2024-01-16T12:12:45.530Z,6.30
2024-01-16T12:15:48.130Z,6.20
2024-01-16T12:18:59.865Z,5.90
2024-01-16T12:22:09.324Z,6.10
2024-01-16T12:25:24.073Z,6.10
2024-01-16T12:28:32.637Z,5.90
2024-01-16T12:31:44.280Z,6.00
2024-01-16T12:34:50.871Z,5.90
2024-01-16T12:38:05.405Z,5.80
2024-01-16T12:41:12.220Z,5.90
2024-01-16T12:44:23.593Z,5.80
2024-01-16T12:47:27.232Z,5.80
2024-01-16T12:50:31.660Z,5.70
2024-01-16T12:53:41.542Z,5.80
2024-01-16T12:57:02.759Z,5.90
2024-01-16T13:00:30.662Z,5.90
2024-01-16T13:03:39.929Z,5.60
2024-01-16T13:06:44.122Z,5.60
2024-01-16T13:09:47.394Z,5.50
2024-01-16T13:13:13.705Z,5.60
2024-01-16T13:16:26.416Z,5.40
2024-01-16T13:19:50.773Z,5.30
2024-01-16T13:23:10.552Z,5.40
2024-01-16T13:30:11.806Z,5.20
2024-01-16T13:33:15.952Z,5.30
2024-01-16T13:36:33.248Z,5.00
2024-01-16T13:39:41.949Z,5.00
2024-01-16T13:42:47.648Z,5.00
2024-01-16T13:45:52.861Z,5.10
2024-01-16T13:48:56.345Z,4.90
2024-01-16T13:52:00.430Z,4.80
2024-01-16T13:55:07.405Z,4.90
2024-01-16T13:58:11.759Z,4.90
2024-01-16T14:01:18.225Z,4.80
2024-01-16T14:04:21.201Z,4.70
2024-01-16T14:07:24.365Z,4.60
2024-01-16T14:10:29.863Z,4.50
2024-01-16T14:13:32.765Z,4.50
2024-01-16T14:16:48.021Z,4.40
2024-01-16T14:19:54.656Z,4.40
2024-01-16T14:23:01.241Z,4.30
2024-01-16T14:26:04.306Z,4.30
2024-01-16T14:29:07.491Z,4.30
2024-01-16T14:32:10.743Z,4.30
2024-01-16T14:35:17.513Z,4.20
2024-01-16T14:38:34.225Z,3.90
2024-01-16T14:41:38.097Z,4.10
2024-01-16T14:44:41.968Z,4.00
2024-01-16T14:47:49.874Z,3.90
2024-01-16T14:50:54.871Z,3.90
2024-01-16T14:54:01.767Z,3.90
2024-01-16T14:57:09.071Z,3.80
2024-01-16T15:00:15.990Z,3.70
2024-01-16T15:03:26.577Z,3.80
2024-01-16T15:06:29.891Z,3.70
2024-01-16T15:09:33.805Z,3.60
2024-01-16T15:12:36.983Z,3.70
2024-01-16T15:15:40.048Z,3.60
2024-01-16T15:18:44.975Z,3.50
2024-01-16T15:21:48.438Z,3.70
2024-01-16T15:24:51.340Z,3.50
2024-01-16T15:27:54.317Z,3.40
2024-01-16T15:30:57.225Z,3.20
2024-01-16T15:34:00.315Z,3.20
2024-01-16T15:37:03.383Z,3.30
2024-01-16T15:40:06.579Z,3.20
2024-01-16T15:43:09.563Z,3.10
2024-01-16T15:46:13.077Z,2.90
2024-01-16T15:49:20.084Z,2.90
2024-01-16T15:52:26.889Z,2.80
2024-01-16T15:55:30.997Z,2.80
2024-01-16T15:58:37.147Z,2.80
2024-01-16T16:01:41.923Z,2.80
2024-01-16T16:04:45.274Z,2.50
2024-01-16T16:07:53.830Z,2.30
2024-01-16T16:10:57.968Z,2.30
2024-01-16T16:14:01.887Z,1.90
2024-01-16T16:17:06.030Z,1.90
2024-01-16T16:20:17.583Z,1.90
2024-01-16T16:23:26.548Z,1.90
2024-01-16T16:26:41.085Z,1.90
2024-01-16T16:29:45.179Z,1.90
2024-01-16T16:32:51.750Z,1.60
2024-01-16T16:35:58.738Z,1.40
2024-01-16T16:39:02.062Z,1.40
2024-01-16T16:42:07.342Z,1.20
2024-01-16T16:45:14.621Z,1.00
2024-01-16T16:48:19.068Z,1.00
2024-01-16T16:51:25.871Z,1.00
2024-01-16T16:54:31.210Z,0.90
2024-01-16T16:57:35.478Z,0.70
2024-01-16T17:00:40.644Z,1.00
2024-01-16T17:03:47.376Z,1.00
2024-01-16T17:06:51.853Z,1.00
2024-01-16T17:10:00.486Z,1.00
2024-01-16T17:13:08.743Z,1.00
2024-01-16T17:16:15.828Z,1.00
2024-01-16T17:19:19.693Z,0.80
2024-01-16T17:22:24.829Z,0.70
2024-01-16T17:25:30.846Z,0.50
2024-01-16T17:28:35.411Z,0.40
2024-01-16T17:31:38.752Z,0.20
2024-01-16T17:34:42.420Z,0.00
2024-01-16T17:37:45.055Z,0.20
2024-01-16T17:40:48.918Z,0.00
2024-01-16T17:43:51.671Z,-0.10
2024-01-16T17:46:54.490Z,-0.20
2024-01-16T17:49:56.660Z,-0.30
2024-01-16T17:52:59.015Z,-0.30
2024-01-16T17:56:00.974Z,-0.20
2024-01-16T17:59:03.048Z,-0.40
2024-01-16T18:02:05.239Z,-0.30
2024-01-16T18:05:13.648Z,-0.50
2024-01-16T18:08:15.894Z,-0.30
2024-01-16T18:11:18.058Z,-0.30
2024-01-16T18:17:27.994Z,-0.10
2024-01-16T18:20:30.140Z,-0.10
2024-01-16T18:23:32.368Z,-0.10
2024-01-16T18:26:35.661Z,-0.10
2024-01-16T18:29:38.581Z,-0.10
2024-01-16T18:32:47.004Z,-0.20
2024-01-16T18:35:49.288Z,-0.10
2024-01-16T18:38:51.691Z,-0.60
2024-01-16T18:42:00.993Z,-0.50
2024-01-16T18:45:03.576Z,-0.50
2024-01-16T18:48:06.340Z,-0.30
2024-01-16T18:51:08.600Z,-0.30
2024-01-16T18:54:12.380Z,-0.40
2024-01-16T18:57:14.649Z,-1.00
2024-01-16T19:00:17.096Z,-0.90
2024-01-16T19:03:26.414Z,-0.80
2024-01-16T19:06:28.663Z,-0.80
2024-01-16T19:12:37.743Z,-0.60
2024-01-16T19:19:03.375Z,-0.50
2024-01-16T19:25:12.985Z,-0.70
2024-01-16T19:28:15.171Z,-0.50
2024-01-16T19:31:25.431Z,-0.60
2024-01-16T19:34:27.614Z,-0.80
2024-01-16T19:37:29.697Z,-0.90
2024-01-16T19:40:31.659Z,-0.90
2024-01-16T19:43:36.282Z,-1.10
2024-01-16T19:46:45.173Z,-0.90
2024-01-16T19:49:48.719Z,-0.90
2024-01-16T19:52:53.395Z,-0.90
2024-01-16T19:55:55.712Z,-0.80
2024-01-16T19:58:57.978Z,-0.70
2024-01-16T20:02:00.166Z,-0.70
2024-01-16T20:05:02.481Z,-0.60
2024-01-16T20:08:05.222Z,-0.60
2024-01-16T20:11:07.690Z,-0.50
2024-01-16T20:14:09.666Z,-0.60
2024-01-16T20:17:11.780Z,-0.50
2024-01-16T20:20:14.849Z,-0.70
2024-01-16T20:23:17.690Z,-0.60
2024-01-16T20:26:23.626Z,-0.60
2024-01-16T20:29:25.687Z,-0.50
2024-01-16T20:32:28.010Z,-0.60
2024-01-16T20:35:30.829Z,-0.70
2024-01-16T20:38:33.362Z,-0.90
2024-01-16T20:41:35.877Z,-0.80
2024-01-16T20:44:37.937Z,-0.60
2024-01-16T20:47:40.288Z,-0.80
2024-01-16T20:50:42.375Z,-0.80
2024-01-16T20:53:44.881Z,-0.80
2024-01-16T20:56:47.198Z,-0.60
2024-01-16T20:59:52.198Z,-0.80
2024-01-16T21:02:54.270Z,-0.60
2024-01-16T21:05:56.905Z,-0.70
2024-01-16T21:08:59.838Z,-0.90
2024-01-16T21:12:04.577Z,-0.80
2024-01-16T21:15:08.394Z,-0.80
2024-01-16T21:18:10.619Z,-0.80
2024-01-16T21:21:12.820Z,-0.90
2024-01-16T21:24:15.624Z,-0.70
2024-01-16T21:27:17.986Z,-0.80
2024-01-16T21:30:20.426Z,-0.80
2024-01-16T21:33:22.725Z,-1.00
2024-01-16T21:36:26.052Z,-0.90
2024-01-16T21:39:28.233Z,-1.10
2024-01-16T21:42:30.711Z,-1.10
2024-01-16T21:45:33.560Z,-1.10
2024-01-16T21:48:36.531Z,-1.30
2024-01-16T21:51:38.728Z,-1.30
2024-01-16T21:54:42.011Z,-1.30
2024-01-16T21:57:44.312Z,-1.50
2024-01-16T22:00:46.502Z,-1.30
2024-01-16T22:03:49.447Z,-1.40
2024-01-16T22:06:52.073Z,-1.30
2024-01-16T22:09:54.721Z,-1.30
2024-01-16T22:12:57.595Z,-1.30
2024-01-16T22:16:00.601Z,-1.30
2024-01-16T22:19:03.265Z,-1.30
2024-01-16T22:22:05.257Z,-1.50
2024-01-16T22:25:11.986Z,-1.50
2024-01-16T22:28:14.676Z,-1.40
2024-01-16T22:31:16.913Z,-1.40
2024-01-16T22:34:19.358Z,-1.30
2024-01-16T22:37:23.250Z,-1.60
2024-01-16T22:40:44.076Z,-1.70
2024-01-16T22:43:50.101Z,-1.60
2024-01-16T22:46:52.169Z,-1.60
2024-01-16T22:49:58.504Z,-1.60
2024-01-16T22:53:00.781Z,-1.30
2024-01-16T22:56:02.745Z,-1.40
2024-01-16T22:59:08.757Z,-1.50
2024-01-16T23:02:21.553Z,-1.60
2024-01-16T23:05:29.082Z,-1.30
2024-01-16T23:08:41.184Z,-1.30
2024-01-16T23:11:55.057Z,-1.50
2024-01-16T23:15:01.493Z,-1.50
2024-01-16T23:18:03.767Z,-1.50
2024-01-16T23:21:06.273Z,-1.30
2024-01-16T23:24:08.724Z,-1.30
2024-01-16T23:27:10.713Z,-1.50
2024-01-16T23:30:16.298Z,-1.60
2024-01-16T23:33:20.965Z,-1.70
2024-01-16T23:36:26.954Z,-1.80
2024-01-16T23:39:33.516Z,-1.80
2024-01-16T23:42:37.990Z,-1.60
2024-01-16T23:45:40.160Z,-1.80
2024-01-16T23:48:42.299Z,-1.90
2024-01-16T23:51:44.322Z,-1.70
2024-01-16T23:54:46.336Z,-1.70
2024-01-16T23:57:48.451Z,-1.80
